createdAt,value
2023-05-02T00:00:08.722Z,100764.69
2023-05-02T00:02:36.796Z,100788.84
2023-05-02T00:05:03.841Z,100742.53
2023-05-02T00:07:30.553Z,100732.47
2023-05-02T00:10:08.794Z,100766.97
2023-05-02T00:12:39.160Z,100701.69
2023-05-02T00:15:06.531Z,100775.63
2023-05-02T00:17:33.261Z,100743.91
2023-05-02T00:20:00.169Z,100770.72
2023-05-02T00:22:37.041Z,100765.50
2023-05-02T00:25:07.252Z,100742.75
2023-05-02T00:27:33.798Z,100711.75
2023-05-02T00:30:01.104Z,100740.75
2023-05-02T00:32:44.427Z,100738.78
2023-05-02T00:35:30.120Z,100692.41
2023-05-02T00:38:02.466Z,100711.34
2023-05-02T00:40:29.365Z,100731.44
2023-05-02T00:42:57.178Z,100649.00
2023-05-02T00:45:23.875Z,100671.34
2023-05-02T00:47:50.709Z,100709.91
2023-05-02T00:50:19.175Z,100699.03
2023-05-02T00:52:59.826Z,100684.13
2023-05-02T00:55:29.741Z,100685.06
2023-05-02T00:57:58.939Z,100706.94
2023-05-02T01:00:40.401Z,100696.78
2023-05-02T01:03:24.969Z,100692.66
2023-05-02T01:06:05.748Z,100592.00
2023-05-02T01:08:52.529Z,100694.38
2023-05-02T01:11:53.935Z,100681.31
2023-05-02T01:14:26.322Z,100670.09
2023-05-02T01:16:52.996Z,100696.16
2023-05-02T01:19:29.342Z,100677.72
2023-05-02T01:22:09.194Z,100655.53
2023-05-02T01:24:57.650Z,100693.53
2023-05-02T01:27:49.762Z,100684.53
2023-05-02T01:30:18.966Z,100685.38
2023-05-02T01:32:47.375Z,100620.38
2023-05-02T01:35:20.240Z,100664.94
2023-05-02T01:37:52.871Z,100689.56
2023-05-02T01:40:22.816Z,100608.66
2023-05-02T01:42:55.622Z,100669.81
2023-05-02T01:45:33.682Z,100632.00
2023-05-02T01:48:01.553Z,100511.28
2023-05-02T01:50:28.602Z,100624.56
2023-05-02T01:53:01.363Z,100668.06
2023-05-02T01:55:28.948Z,100639.84
2023-05-02T01:57:59.337Z,100673.19
2023-05-02T02:00:26.673Z,100674.34
2023-05-02T02:02:57.543Z,100611.06
2023-05-02T02:05:25.481Z,100672.38
2023-05-02T02:07:52.141Z,100643.38
2023-05-02T02:10:25.297Z,100662.63
2023-05-02T02:12:58.115Z,100648.44
2023-05-02T02:15:29.244Z,100669.31
2023-05-02T02:18:02.554Z,100669.25
2023-05-02T02:20:30.308Z,100565.69
2023-05-02T02:22:59.352Z,100591.09
2023-05-02T02:25:27.231Z,100673.97
2023-05-02T02:27:54.116Z,100634.31
2023-05-02T02:30:29.801Z,100635.66
2023-05-02T02:32:56.606Z,100544.38
2023-05-02T02:35:33.910Z,100658.25
2023-05-02T02:38:18.668Z,100664.28
2023-05-02T02:40:55.136Z,100660.28
2023-05-02T02:43:45.719Z,100640.47
2023-05-02T02:46:43.257Z,100583.56
2023-05-02T02:49:38.148Z,100622.06
2023-05-02T02:52:16.368Z,100670.63
2023-05-02T02:54:55.350Z,100647.84
2023-05-02T02:57:46.054Z,100564.09
2023-05-02T03:00:25.057Z,100663.19
2023-05-02T03:03:09.016Z,100662.38
2023-05-02T03:05:36.141Z,100646.13
2023-05-02T03:08:03.034Z,100628.34
2023-05-02T03:10:32.520Z,100666.97
2023-05-02T03:12:59.730Z,100650.44
2023-05-02T03:16:02.962Z,100670.47
2023-05-02T03:18:29.542Z,100672.50
2023-05-02T03:20:58.252Z,100581.91
2023-05-02T03:23:28.239Z,100662.88
2023-05-02T03:25:55.340Z,100659.16
2023-05-02T03:28:29.213Z,100655.66
2023-05-02T03:30:59.517Z,100675.34
2023-05-02T03:33:26.209Z,100624.63
2023-05-02T03:35:53.333Z,100667.81
2023-05-02T03:38:19.973Z,100666.28
2023-05-02T03:40:46.553Z,100676.50
2023-05-02T03:43:13.331Z,100673.50
2023-05-02T03:45:39.923Z,100658.91
2023-05-02T03:48:06.990Z,100638.75
2023-05-02T03:50:33.653Z,100566.66
2023-05-02T03:53:06.331Z,100685.91
2023-05-02T03:55:33.027Z,100646.22
2023-05-02T03:57:59.595Z,100690.00
2023-05-02T04:00:26.294Z,100692.88
2023-05-02T04:02:57.314Z,100707.88
2023-05-02T04:05:23.890Z,100686.13
2023-05-02T04:07:50.666Z,100666.63
2023-05-02T04:10:18.286Z,100651.34
2023-05-02T04:12:56.056Z,100708.00
2023-05-02T04:15:33.834Z,100719.13
2023-05-02T04:18:00.895Z,100714.16
2023-05-02T04:20:32.120Z,100714.47
2023-05-02T04:23:05.596Z,100716.78
2023-05-02T04:25:32.832Z,100696.66
2023-05-02T04:28:01.533Z,100708.72
2023-05-02T04:30:31.952Z,100698.66
2023-05-02T04:33:00.909Z,100730.44
2023-05-02T04:35:27.622Z,100732.19
2023-05-02T04:38:01.415Z,100738.94
2023-05-02T04:40:34.315Z,100665.72
2023-05-02T04:43:00.798Z,100677.13
2023-05-02T04:45:31.283Z,100708.91
2023-05-02T04:47:58.088Z,100762.81
2023-05-02T04:50:27.973Z,100717.94
2023-05-02T04:52:54.686Z,100768.03
2023-05-02T04:55:21.644Z,100762.25
2023-05-02T04:57:48.235Z,100774.38
2023-05-02T05:00:15.605Z,100767.59
2023-05-02T05:02:43.251Z,100769.94
2023-05-02T05:05:10.190Z,100788.84
2023-05-02T05:07:37.477Z,100767.59
2023-05-02T05:10:04.238Z,100768.94
2023-05-02T05:12:30.812Z,100802.00
2023-05-02T05:14:57.385Z,100643.47
2023-05-02T05:17:24.052Z,100772.59
2023-05-02T05:19:52.591Z,100827.28
2023-05-02T05:22:22.916Z,100781.50
2023-05-02T05:24:54.641Z,100808.88
2023-05-02T05:27:21.616Z,100813.25
2023-05-02T05:29:48.485Z,100749.25
2023-05-02T05:32:15.217Z,100805.19
2023-05-02T05:34:41.984Z,100842.41
2023-05-02T05:37:08.763Z,100782.28
2023-05-02T05:39:41.864Z,100759.50
2023-05-02T05:42:09.859Z,100844.81
2023-05-02T05:44:36.782Z,100833.66
2023-05-02T05:47:03.520Z,100844.88
2023-05-02T05:49:30.743Z,100835.53
2023-05-02T05:51:57.579Z,100853.72
2023-05-02T05:54:24.649Z,100734.75
2023-05-02T05:57:02.101Z,100873.00
2023-05-02T05:59:35.798Z,100863.09
2023-05-02T06:02:20.014Z,100872.84
2023-05-02T06:04:49.191Z,100845.84
2023-05-02T06:07:20.097Z,100879.19
2023-05-02T06:09:48.263Z,100856.59
2023-05-02T06:12:16.489Z,100874.44
2023-05-02T06:14:43.168Z,100876.19
2023-05-02T06:17:09.866Z,100828.63
2023-05-02T06:19:39.361Z,100851.84
2023-05-02T06:22:06.087Z,100810.59
2023-05-02T06:24:32.898Z,100893.22
2023-05-02T06:27:00.379Z,100890.16
2023-05-02T06:29:27.085Z,100889.78
2023-05-02T06:31:56.877Z,100888.16
2023-05-02T06:34:23.857Z,100906.56
2023-05-02T06:37:06.708Z,100907.84
2023-05-02T06:39:33.754Z,100777.88
2023-05-02T06:42:05.234Z,100916.28
2023-05-02T06:44:32.004Z,100901.06
2023-05-02T06:47:00.098Z,100883.44
2023-05-02T06:49:26.994Z,100826.97
2023-05-02T06:51:53.750Z,100915.41
2023-05-02T06:54:21.881Z,100842.97
2023-05-02T06:56:48.537Z,100913.13
2023-05-02T06:59:16.988Z,100907.16
2023-05-02T07:01:46.602Z,100906.75
2023-05-02T07:04:13.348Z,100824.47
2023-05-02T07:06:40.365Z,100929.28
2023-05-02T07:09:07.116Z,100920.34
2023-05-02T07:11:34.086Z,100900.34
2023-05-02T07:14:00.814Z,100926.97
2023-05-02T07:16:28.389Z,100924.84
2023-05-02T07:18:54.994Z,100901.13
2023-05-02T07:21:21.629Z,100923.53
2023-05-02T07:23:51.392Z,100925.53
2023-05-02T07:26:19.024Z,100910.25
2023-05-02T07:28:55.026Z,100916.94
2023-05-02T07:31:21.773Z,100931.72
2023-05-02T07:34:01.831Z,100932.81
2023-05-02T07:36:30.087Z,100935.63
2023-05-02T07:39:01.680Z,100898.97
2023-05-02T07:41:28.740Z,100919.13
2023-05-02T07:43:56.076Z,100942.22
2023-05-02T07:46:22.738Z,100907.69
2023-05-02T07:48:49.847Z,100947.75
2023-05-02T07:51:16.501Z,100933.31
2023-05-02T07:53:43.041Z,100956.50
2023-05-02T07:56:09.835Z,100959.00
2023-05-02T07:58:39.325Z,100924.28
2023-05-02T08:01:08.545Z,100946.25
2023-05-02T08:03:35.447Z,100964.03
2023-05-02T08:06:02.462Z,100967.44
2023-05-02T08:08:30.250Z,100966.59
2023-05-02T08:10:57.052Z,100881.75
2023-05-02T08:13:32.375Z,100946.53
2023-05-02T08:16:10.495Z,100978.31
2023-05-02T08:18:38.632Z,100974.38
2023-05-02T08:21:05.804Z,100957.84
2023-05-02T08:23:35.951Z,100824.47
2023-05-02T08:26:19.333Z,100972.97
2023-05-02T08:28:46.108Z,100959.28
2023-05-02T08:31:13.145Z,100945.41
2023-05-02T08:33:39.872Z,100954.94
2023-05-02T08:36:15.752Z,100968.78
2023-05-02T08:38:44.007Z,100974.88
2023-05-02T08:41:18.682Z,100978.06
2023-05-02T08:43:48.337Z,100908.25
2023-05-02T08:46:16.914Z,100983.97
2023-05-02T08:48:51.333Z,100853.22
2023-05-02T08:51:23.687Z,100972.78
2023-05-02T08:53:52.142Z,100999.41
2023-05-02T08:56:19.697Z,100977.03
2023-05-02T08:58:46.326Z,100999.41
2023-05-02T09:01:18.041Z,100995.78
2023-05-02T09:03:46.819Z,100997.34
2023-05-02T09:06:15.520Z,101014.25
2023-05-02T09:08:44.301Z,100914.13
2023-05-02T09:11:12.535Z,101021.53
2023-05-02T09:13:47.607Z,101016.69
2023-05-02T09:16:26.793Z,101022.09
2023-05-02T09:18:55.553Z,101025.22
2023-05-02T09:21:41.223Z,100967.53
2023-05-02T09:24:23.052Z,101019.63
2023-05-02T09:27:04.363Z,101016.69
2023-05-02T09:29:44.177Z,101017.34
2023-05-02T09:32:14.027Z,101003.34
2023-05-02T09:34:40.939Z,100973.66
2023-05-02T09:37:08.413Z,100978.94
2023-05-02T09:39:35.185Z,101019.03
2023-05-02T09:42:07.027Z,101022.25
2023-05-02T09:44:40.808Z,101037.25
2023-05-02T09:47:08.664Z,100843.44
2023-05-02T09:49:47.669Z,101029.13
2023-05-02T09:52:22.386Z,100992.28
2023-05-02T09:54:52.774Z,100971.19
2023-05-02T09:57:19.856Z,100900.84
2023-05-02T09:59:57.618Z,101035.84
2023-05-02T10:02:26.782Z,100969.97
2023-05-02T10:04:57.314Z,101045.91
2023-05-02T10:07:27.865Z,101026.06
2023-05-02T10:10:01.143Z,100982.91
2023-05-02T10:12:31.727Z,101030.03
2023-05-02T10:15:04.114Z,101040.69
2023-05-02T10:17:50.804Z,101048.22
2023-05-02T10:20:29.867Z,101051.88
2023-05-02T10:23:00.250Z,101028.31
2023-05-02T10:25:30.707Z,101037.81
2023-05-02T10:28:00.021Z,101054.09
2023-05-02T10:30:30.803Z,100945.97
2023-05-02T10:32:59.992Z,100958.88
2023-05-02T10:39:14.977Z,101038.44
2023-05-02T10:41:43.168Z,101042.63
2023-05-02T10:44:11.226Z,101057.91
2023-05-02T10:46:42.462Z,101077.25
2023-05-02T10:49:10.984Z,101011.78
2023-05-02T10:51:40.647Z,101076.78
2023-05-02T10:54:24.266Z,101082.81
2023-05-02T10:57:09.454Z,101084.09
2023-05-02T10:59:53.911Z,101042.22
2023-05-02T11:02:26.163Z,100977.31
2023-05-02T11:05:07.614Z,101017.25
2023-05-02T11:07:36.287Z,101065.91
2023-05-02T11:10:18.440Z,101034.66
2023-05-02T11:12:58.195Z,101062.25
2023-05-02T11:15:28.069Z,101089.16
2023-05-02T11:18:12.959Z,101098.28
2023-05-02T11:20:53.551Z,101083.31
2023-05-02T11:23:27.699Z,100917.56
2023-05-02T11:26:00.772Z,101077.97
2023-05-02T11:28:36.933Z,101103.31
2023-05-02T11:31:05.147Z,101096.56
2023-05-02T11:33:38.605Z,101099.53
2023-05-02T11:36:08.712Z,101107.03
2023-05-02T11:38:38.453Z,101085.19
2023-05-02T11:41:08.284Z,101059.69
2023-05-02T11:43:44.531Z,101114.88
2023-05-02T11:46:42.031Z,101061.97
2023-05-02T11:49:18.253Z,101120.00
2023-05-02T11:51:54.377Z,101084.91
2023-05-02T11:54:23.705Z,101086.72
2023-05-02T11:56:58.749Z,101098.09
2023-05-02T11:59:33.467Z,101111.41
2023-05-02T12:02:00.668Z,101105.06
2023-05-02T12:04:28.400Z,101103.28
2023-05-02T12:06:57.009Z,101092.81
2023-05-02T12:09:23.892Z,101121.97
2023-05-02T12:11:54.182Z,101090.41
2023-05-02T12:14:42.398Z,101118.59
2023-05-02T12:17:18.719Z,101102.69
2023-05-02T12:20:01.693Z,101130.16
2023-05-02T12:22:45.436Z,101113.56
2023-05-02T12:25:35.685Z,101135.34
2023-05-02T12:28:22.955Z,101065.44
2023-05-02T12:30:51.819Z,101151.22
2023-05-02T12:33:34.269Z,101137.03
2023-05-02T12:36:11.946Z,101139.09
2023-05-02T12:38:40.751Z,101151.75
2023-05-02T12:41:24.695Z,101127.31
2023-05-02T12:43:52.805Z,101102.94
2023-05-02T12:46:48.121Z,101080.78
2023-05-02T12:49:59.829Z,101153.94
2023-05-02T12:53:02.944Z,101148.34
2023-05-02T12:55:53.143Z,101151.47
2023-05-02T12:58:28.986Z,101153.59
2023-05-02T13:01:03.540Z,101148.84
2023-05-02T13:03:41.417Z,101157.09
2023-05-02T13:06:17.454Z,101077.31
2023-05-02T13:09:07.046Z,101156.78
2023-05-02T13:11:42.592Z,101159.31
2023-05-02T13:14:16.091Z,101168.28
2023-05-02T13:16:52.088Z,101160.72
2023-05-02T13:19:20.839Z,101141.06
2023-05-02T13:21:51.080Z,101137.31
2023-05-02T13:24:20.745Z,101142.50
2023-05-02T13:26:55.616Z,101162.25
2023-05-02T13:29:42.527Z,101163.25
2023-05-02T13:32:16.456Z,101174.84
2023-05-02T13:35:02.824Z,101148.59
2023-05-02T13:37:51.703Z,101152.97
2023-05-02T13:40:24.699Z,101144.81
2023-05-02T13:43:07.670Z,101173.75
2023-05-02T13:45:57.203Z,101139.69
2023-05-02T13:48:32.820Z,101151.16
2023-05-02T13:51:14.616Z,101142.75
2023-05-02T13:53:46.509Z,101183.56
2023-05-02T13:56:20.070Z,101172.78
2023-05-02T13:58:53.476Z,101171.09
2023-05-02T14:01:20.249Z,101086.66
2023-05-02T14:03:47.345Z,101035.13
2023-05-02T14:06:27.008Z,101168.84
2023-05-02T14:08:55.701Z,101157.22
2023-05-02T14:11:30.872Z,101166.91
2023-05-02T14:13:59.481Z,101190.19
2023-05-02T14:16:30.667Z,101175.59
2023-05-02T14:18:59.185Z,101163.91
2023-05-02T14:21:25.951Z,101173.69
2023-05-02T14:23:52.749Z,101202.25
2023-05-02T14:26:24.729Z,101178.13
2023-05-02T14:29:00.996Z,101167.91
2023-05-02T14:31:28.039Z,101203.94
2023-05-02T14:33:59.530Z,101204.41
2023-05-02T14:36:27.708Z,101171.41
2023-05-02T14:38:54.360Z,101209.88
2023-05-02T14:41:22.688Z,101096.84
2023-05-02T14:43:51.977Z,101209.28
2023-05-02T14:46:19.427Z,101157.41
2023-05-02T14:48:49.340Z,101195.81
2023-05-02T14:51:21.008Z,101199.09
2023-05-02T14:53:54.399Z,101196.97
2023-05-02T14:56:21.852Z,101206.50
2023-05-02T14:58:53.296Z,101174.91
2023-05-02T15:01:31.291Z,101206.50
2023-05-02T15:04:06.450Z,101218.00
2023-05-02T15:06:45.794Z,101226.41
2023-05-02T15:09:12.926Z,101182.34
2023-05-02T15:11:40.689Z,101220.22
2023-05-02T15:14:07.555Z,101215.03
2023-05-02T15:16:34.775Z,101214.75
2023-05-02T15:19:03.082Z,101227.66
2023-05-02T15:21:30.911Z,101154.47
2023-05-02T15:24:00.122Z,101166.84
2023-05-02T15:26:31.057Z,101180.19
2023-05-02T15:29:07.550Z,101178.50
2023-05-02T15:31:34.706Z,101159.97
2023-05-02T15:34:01.417Z,101232.94
2023-05-02T15:36:37.428Z,101195.34
2023-05-02T15:39:11.682Z,101171.53
2023-05-02T15:41:38.488Z,101118.38
2023-05-02T15:44:05.481Z,101210.94
2023-05-02T15:46:41.123Z,101204.50
2023-05-02T15:49:07.891Z,100988.66
2023-05-02T15:51:34.620Z,101216.38
2023-05-02T15:54:01.774Z,101215.81
2023-05-02T15:56:29.657Z,101248.56
2023-05-02T15:58:58.638Z,101233.53
2023-05-02T16:01:27.976Z,101119.66
2023-05-02T16:03:58.782Z,101082.91
2023-05-02T16:06:26.052Z,101230.44
2023-05-02T16:08:54.208Z,101188.94
2023-05-02T16:11:21.073Z,101216.88
2023-05-02T16:13:48.008Z,101225.31
2023-05-02T16:16:18.020Z,101120.81
2023-05-02T16:18:44.738Z,101183.91
2023-05-02T16:21:11.717Z,101186.75
2023-05-02T16:23:38.465Z,101251.53
2023-05-02T16:26:05.390Z,101160.53
2023-05-02T16:28:37.927Z,101178.47
2023-05-02T16:31:17.508Z,101220.41
2023-05-02T16:33:46.616Z,101264.38
2023-05-02T16:36:15.294Z,101232.19
2023-05-02T16:38:43.255Z,101234.19
2023-05-02T16:41:10.550Z,101256.19
2023-05-02T16:43:37.938Z,101223.34
2023-05-02T16:46:13.961Z,101253.22
2023-05-02T16:48:43.847Z,101266.13
2023-05-02T16:51:10.746Z,101238.25
2023-05-02T16:53:38.655Z,101258.84
2023-05-02T16:56:15.040Z,101270.53
2023-05-02T16:58:41.802Z,101269.81
2023-05-02T17:01:17.279Z,101275.47
2023-05-02T17:03:44.966Z,101239.78
2023-05-02T17:06:16.074Z,101260.84
2023-05-02T17:08:43.066Z,101243.63
2023-05-02T17:11:15.987Z,101267.03
2023-05-02T17:13:49.911Z,101269.00
2023-05-02T17:16:18.266Z,101272.09
2023-05-02T17:18:45.149Z,101286.31
2023-05-02T17:21:12.150Z,101187.78
2023-05-02T17:23:40.309Z,101181.47
2023-05-02T17:26:16.101Z,101283.94
2023-05-02T17:28:50.478Z,101248.56
2023-05-02T17:31:17.682Z,101282.38
2023-05-02T17:33:45.864Z,101298.53
2023-05-02T17:36:15.862Z,101300.66
2023-05-02T17:38:43.995Z,101255.03
2023-05-02T17:41:16.493Z,101172.78
2023-05-02T17:43:46.829Z,101284.78
2023-05-02T17:46:20.784Z,101251.78
2023-05-02T17:48:48.809Z,101240.56
2023-05-02T17:51:16.086Z,101308.38
2023-05-02T17:53:48.748Z,101268.38
2023-05-02T17:56:21.937Z,101292.38
2023-05-02T17:58:57.066Z,101307.97
2023-05-02T18:01:27.903Z,101302.91
2023-05-02T18:03:59.345Z,101320.72
2023-05-02T18:06:27.844Z,101247.72
2023-05-02T18:09:00.413Z,101326.91
2023-05-02T18:11:29.798Z,101191.59
2023-05-02T18:14:02.176Z,101276.09
2023-05-02T18:16:29.395Z,101340.97
2023-05-02T18:18:56.434Z,101339.00
2023-05-02T18:21:40.090Z,101127.72
2023-05-02T18:24:07.953Z,101332.84
2023-05-02T18:26:38.226Z,101307.28
2023-05-02T18:29:14.104Z,101336.06
2023-05-02T18:31:42.285Z,101344.06
2023-05-02T18:34:09.501Z,101351.94
2023-05-02T18:36:40.292Z,101350.09
2023-05-02T18:39:07.067Z,101305.16
2023-05-02T18:41:33.812Z,101222.22
2023-05-02T18:44:00.830Z,101333.00
2023-05-02T18:46:30.941Z,101352.97
2023-05-02T18:48:58.555Z,101333.41
2023-05-02T18:51:31.480Z,101346.09
2023-05-02T18:54:00.391Z,101368.81
2023-05-02T18:56:31.858Z,101368.28
2023-05-02T18:59:03.351Z,101357.31
2023-05-02T19:01:33.969Z,101372.31
2023-05-02T19:04:06.096Z,101392.44
2023-05-02T19:06:35.891Z,101392.44
2023-05-02T19:09:07.134Z,101325.81
2023-05-02T19:11:37.011Z,101271.06
2023-05-02T19:14:04.361Z,101401.44
2023-05-02T19:16:38.906Z,101411.00
2023-05-02T19:19:09.013Z,101376.41
2023-05-02T19:21:36.376Z,101409.03
2023-05-02T19:24:04.109Z,101414.78
2023-05-02T19:26:31.560Z,101401.84
2023-05-02T19:29:05.816Z,101407.63
2023-05-02T19:31:34.871Z,101396.09
2023-05-02T19:34:01.998Z,101422.50
2023-05-02T19:36:33.636Z,101245.63
2023-05-02T19:39:13.765Z,101366.41
2023-05-02T19:41:55.151Z,101434.84
2023-05-02T19:44:27.105Z,101410.25
2023-05-02T19:46:56.745Z,101418.28
2023-05-02T19:49:25.478Z,101441.63
2023-05-02T19:52:04.770Z,101452.28
2023-05-02T19:54:40.611Z,101457.06
2023-05-02T19:57:12.153Z,101447.66
2023-05-02T19:59:44.841Z,101443.44
2023-05-02T20:02:23.523Z,101455.69
2023-05-02T20:04:56.682Z,101458.22
2023-05-02T20:07:48.890Z,101458.47
2023-05-02T20:10:36.685Z,101460.72
2023-05-02T20:13:15.239Z,101465.78
2023-05-02T20:15:50.147Z,101473.38
2023-05-02T20:18:46.696Z,101475.50
2023-05-02T20:21:36.768Z,101387.31
2023-05-02T20:24:20.287Z,101306.72
2023-05-02T20:26:57.718Z,101481.56
2023-05-02T20:29:38.209Z,101441.28
2023-05-02T20:32:10.818Z,101408.13
2023-05-02T20:34:43.870Z,101470.44
2023-05-02T20:37:12.333Z,101485.19
2023-05-02T20:40:01.294Z,101465.34
2023-05-02T20:42:32.077Z,101463.34
2023-05-02T20:45:09.391Z,101484.47
2023-05-02T20:47:41.186Z,101403.31
2023-05-02T20:50:13.584Z,101492.22
2023-05-02T20:52:40.697Z,101484.91
2023-05-02T20:55:18.181Z,101483.19
2023-05-02T20:57:45.966Z,101485.88
2023-05-02T21:00:14.597Z,101474.19
2023-05-02T21:02:49.606Z,101415.50
2023-05-02T21:05:20.485Z,101449.13
2023-05-02T21:07:47.662Z,101492.91
2023-05-02T21:10:24.376Z,101468.53
2023-05-02T21:13:00.874Z,101504.25
2023-05-02T21:15:32.913Z,101472.63
2023-05-02T21:18:12.122Z,101457.69
2023-05-02T21:20:44.273Z,101500.19
2023-05-02T21:23:11.671Z,101437.00
2023-05-02T21:25:41.637Z,101482.44
2023-05-02T21:28:10.904Z,101453.88
2023-05-02T21:30:37.530Z,101486.25
2023-05-02T21:33:09.794Z,101507.91
2023-05-02T21:35:39.837Z,101458.25
2023-05-02T21:38:09.305Z,101492.88
2023-05-02T21:40:38.124Z,101509.72
2023-05-02T21:43:08.230Z,101508.19
2023-05-02T21:45:34.967Z,101512.53
2023-05-02T21:48:01.754Z,101487.31
2023-05-02T21:50:31.061Z,101474.94
2023-05-02T21:53:07.287Z,101457.19
2023-05-02T21:55:42.754Z,101489.56
2023-05-02T21:58:18.953Z,101504.75
2023-05-02T22:00:57.546Z,101508.16
2023-05-02T22:03:25.907Z,101525.31
2023-05-02T22:05:54.653Z,101524.16
2023-05-02T22:08:27.604Z,101493.47
2023-05-02T22:11:02.446Z,101477.69
2023-05-02T22:13:29.373Z,101397.84
2023-05-02T22:16:01.215Z,101491.06
2023-05-02T22:18:30.580Z,101542.13
2023-05-02T22:21:03.796Z,101433.69
2023-05-02T22:23:31.172Z,101531.72
2023-05-02T22:26:07.161Z,101513.41
2023-05-02T22:28:33.898Z,101539.81
2023-05-02T22:31:03.510Z,101534.75
2023-05-02T22:33:30.338Z,101526.59
2023-05-02T22:35:58.654Z,101517.19
2023-05-02T22:38:30.490Z,101473.75
2023-05-02T22:40:57.079Z,101535.19
2023-05-02T22:43:26.767Z,101464.47
2023-05-02T22:45:54.229Z,101480.19
2023-05-02T22:48:25.791Z,101517.81
2023-05-02T22:50:55.828Z,101541.63
2023-05-02T22:53:25.065Z,101528.38
2023-05-02T22:56:00.569Z,101514.47
2023-05-02T22:58:27.385Z,101539.09
2023-05-02T23:01:03.411Z,101550.34
2023-05-02T23:03:32.737Z,101508.22
2023-05-02T23:06:00.939Z,101545.53
2023-05-02T23:08:27.950Z,101521.88
2023-05-02T23:10:55.015Z,101504.63
2023-05-02T23:13:22.033Z,101524.09
2023-05-02T23:15:54.636Z,101534.66
2023-05-02T23:18:27.323Z,101517.69
2023-05-02T23:20:54.134Z,101512.19
2023-05-02T23:23:25.648Z,101504.59
2023-05-02T23:25:53.569Z,101512.25
2023-05-02T23:28:20.448Z,101487.91
2023-05-02T23:30:48.670Z,101502.31
2023-05-02T23:33:18.567Z,101490.72
2023-05-02T23:35:45.663Z,101535.53
2023-05-02T23:38:12.465Z,101535.00
2023-05-02T23:40:39.197Z,101523.75
2023-05-02T23:43:15.975Z,101522.63
2023-05-02T23:45:43.884Z,101520.81
2023-05-02T23:48:11.200Z,101499.09
2023-05-02T23:50:38.032Z,101480.16
2023-05-02T23:53:07.747Z,101526.91
2023-05-02T23:55:38.769Z,101529.69
2023-05-02T23:58:06.855Z,101512.81
